OOCL Atlanta — VRAR6 — position and weather

sailwx.info

Track history (hours):
 
Tides and Currents Weather Stations Pressure Air Temp Water Temp Dewpoint Dewpoint Depression Visibility Wind Speed Wind Dir Waves Ship Positions

OOCL Atlanta

Last reported at 2016-Aug-27 13:33 UTC. Time now 2016-Aug-29 03:45 UTC.
Position N 01°12' E 103°33'.

Length 323 m; beam 42.8 m; draft 14.5 m.

Type: Cargo ship. MMSI: 477920300.

Date/timePositionNaut miles runAvg speedWind from/ knotsBaromVisibWave heightAir tempDewpointWater temp
2016-Aug-27 13:33N 01°12' E 103°33'1616.3
2016-Aug-27 12:33N 01°11' E 103°49'6 5.6
2016-Aug-27 11:33N 01°16' E 103°51'0 0.2
2016-Aug-27 10:28N 01°16' E 103°51'0 0.0
2016-Aug-27 09:28N 01°16' E 103°51'0 0.0
2016-Aug-27 08:28N 01°16' E 103°51'0 0.0
2016-Aug-27 07:28N 01°16' E 103°51'0 0.0
2016-Aug-27 06:31N 01°16' E 103°51'0 0.0
2016-Aug-27 04:28N 01°16' E 103°51'0 0.0
2016-Aug-27 03:28N 01°16' E 103°51'0 0.0
2016-Aug-27 02:28N 01°16' E 103°51'0 0.0
2016-Aug-27 01:31N 01°16' E 103°51'0 0.0
2016-Aug-27 00:31N 01°16' E 103°51'0 0.0
2016-Aug-26 23:31N 01°16' E 103°51'0 0.0
2016-Aug-26 22:28N 01°16' E 103°51'0 0.0
2016-Aug-26 21:31N 01°16' E 103°51'0 0.0
2016-Aug-26 20:31N 01°16' E 103°51'0 0.0
2016-Aug-26 18:16N 01°16' E 103°51'0 0.0
2016-Aug-26 17:25N 01°16' E 103°51'0 0.0
2016-Aug-26 16:16N 01°16' E 103°51'0 0.0
2016-Aug-26 15:10N 01°16' E 103°51'0 0.0
2016-Aug-26 13:16N 01°16' E 103°51'0 0.0
2016-Aug-26 12:28N 01°16' E 103°51'0 0.0
2016-Aug-26 11:25N 01°16' E 103°51'0 0.0
2016-Aug-26 10:28N 01°16' E 103°51'0 0.0
2016-Aug-26 09:31N 01°16' E 103°51'3 3.2
2016-Aug-26 08:33N 01°14' E 103°53'4 4.5
2016-Aug-26 07:34N 01°15' E 103°58'10 9.7
2016-Aug-26 06:33N 01°17' E 104°07'  
2016-Aug-22 00:00N 19°30' E 112°48'17817.0 250 / 81002.727.0 33.027.628.9
2016-Aug-21 13:33N 22°03' E 114°25'3212.9
2016-Aug-21 11:06N 22°34' E 114°16'0 0.0
2016-Aug-21 00:20N 22°34' E 114°16'0 0.0
2016-Aug-20 23:32N 22°34' E 114°16'0 0.0
2016-Aug-20 22:32N 22°34' E 114°16'0 0.0
2016-Aug-20 21:32N 22°34' E 114°16'0 0.0
2016-Aug-20 18:26N 22°34' E 114°16'0 0.0
2016-Aug-20 17:32N 22°34' E 114°16'0 0.0
2016-Aug-20 15:32N 22°34' E 114°16'0 0.0
2016-Aug-20 14:32N 22°34' E 114°16'0 0.0
2016-Aug-20 13:32N 22°34' E 114°16'0 0.0
2016-Aug-20 12:20N 22°34' E 114°16'20 2.2
2016-Aug-20 03:16N 22°18' E 114°29'5 6.6
2016-Aug-20 02:27N 22°12' E 114°28'1 0.7
2016-Aug-20 01:33N 22°12' E 114°28'6 2.8
2016-Aug-19 23:33N 22°08' E 114°24'20 6.6
2016-Aug-19 20:33N 22°20' E 114°07'0 0.0
2016-Aug-19 11:33N 22°20' E 114°08'0 0.0
2016-Aug-19 09:21N 22°20' E 114°08'0 0.0
2016-Aug-19 08:27N 22°20' E 114°08'0 0.0
2016-Aug-19 07:27N 22°20' E 114°08'0 0.0
2016-Aug-19 06:27N 22°20' E 114°08'3 0.6
2016-Aug-19 02:32N 22°18' E 114°06'1510.6
2016-Aug-19 01:07N 22°08' E 114°18'610.4
2016-Aug-19 00:33N 22°05' E 114°23'  
Track history (hours):
 
Tides and Currents Weather Stations Pressure Air Temp Water Temp Dewpoint Dewpoint Depression Visibility Wind Speed Wind Dir Waves Ship Positions

OOCL Atlanta

Last reported at 2016-Aug-27 13:33 UTC. Time now 2016-Aug-29 03:45 UTC.
Position N 01°12' E 103°33'.

Length 323 m; beam 42.8 m; draft 14.5 m.

Type: Cargo ship. MMSI: 477920300.

Date/timePositionNaut miles runAvg speedWind from/ knotsBaromVisibWave heightAir tempDewpointWater temp
2016-Aug-27 13:33N 01°12' E 103°33'1616.3
2016-Aug-27 12:33N 01°11' E 103°49'6 5.6
2016-Aug-27 11:33N 01°16' E 103°51'0 0.2
2016-Aug-27 10:28N 01°16' E 103°51'0 0.0
2016-Aug-27 09:28N 01°16' E 103°51'0 0.0
2016-Aug-27 08:28N 01°16' E 103°51'0 0.0
2016-Aug-27 07:28N 01°16' E 103°51'0 0.0
2016-Aug-27 06:31N 01°16' E 103°51'0 0.0
2016-Aug-27 04:28N 01°16' E 103°51'0 0.0
2016-Aug-27 03:28N 01°16' E 103°51'0 0.0
2016-Aug-27 02:28N 01°16' E 103°51'0 0.0
2016-Aug-27 01:31N 01°16' E 103°51'0 0.0
2016-Aug-27 00:31N 01°16' E 103°51'0 0.0
2016-Aug-26 23:31N 01°16' E 103°51'0 0.0
2016-Aug-26 22:28N 01°16' E 103°51'0 0.0
2016-Aug-26 21:31N 01°16' E 103°51'0 0.0
2016-Aug-26 20:31N 01°16' E 103°51'0 0.0
2016-Aug-26 18:16N 01°16' E 103°51'0 0.0
2016-Aug-26 17:25N 01°16' E 103°51'0 0.0
2016-Aug-26 16:16N 01°16' E 103°51'0 0.0
2016-Aug-26 15:10N 01°16' E 103°51'0 0.0
2016-Aug-26 13:16N 01°16' E 103°51'0 0.0
2016-Aug-26 12:28N 01°16' E 103°51'0 0.0
2016-Aug-26 11:25N 01°16' E 103°51'0 0.0
2016-Aug-26 10:28N 01°16' E 103°51'0 0.0
2016-Aug-26 09:31N 01°16' E 103°51'3 3.2
2016-Aug-26 08:33N 01°14' E 103°53'4 4.5
2016-Aug-26 07:34N 01°15' E 103°58'10 9.7
2016-Aug-26 06:33N 01°17' E 104°07'  
2016-Aug-22 00:00N 19°30' E 112°48'17817.0 250 / 81002.727.0 33.027.628.9
2016-Aug-21 13:33N 22°03' E 114°25'3212.9
2016-Aug-21 11:06N 22°34' E 114°16'0 0.0
2016-Aug-21 00:20N 22°34' E 114°16'0 0.0
2016-Aug-20 23:32N 22°34' E 114°16'0 0.0
2016-Aug-20 22:32N 22°34' E 114°16'0 0.0
2016-Aug-20 21:32N 22°34' E 114°16'0 0.0
2016-Aug-20 18:26N 22°34' E 114°16'0 0.0
2016-Aug-20 17:32N 22°34' E 114°16'0 0.0
2016-Aug-20 15:32N 22°34' E 114°16'0 0.0
2016-Aug-20 14:32N 22°34' E 114°16'0 0.0
2016-Aug-20 13:32N 22°34' E 114°16'0 0.0
2016-Aug-20 12:20N 22°34' E 114°16'20 2.2
2016-Aug-20 03:16N 22°18' E 114°29'5 6.6
2016-Aug-20 02:27N 22°12' E 114°28'1 0.7
2016-Aug-20 01:33N 22°12' E 114°28'6 2.8
2016-Aug-19 23:33N 22°08' E 114°24'20 6.6
2016-Aug-19 20:33N 22°20' E 114°07'0 0.0
2016-Aug-19 11:33N 22°20' E 114°08'0 0.0
2016-Aug-19 09:21N 22°20' E 114°08'0 0.0
2016-Aug-19 08:27N 22°20' E 114°08'0 0.0
2016-Aug-19 07:27N 22°20' E 114°08'0 0.0
2016-Aug-19 06:27N 22°20' E 114°08'3 0.6
2016-Aug-19 02:32N 22°18' E 114°06'1510.6
2016-Aug-19 01:07N 22°08' E 114°18'610.4
2016-Aug-19 00:33N 22°05' E 114°23'  

Dump ship's entire track history